QTR75 OLBA-EKCH
Flight info
| Callsign | QTR75 |
|---|---|
| Flight time | N/A |
| Altitude | 36000 |
| Route | KAD2D KAD B15 BALMA DCT VESAR DCT EVKIT DCT MUT DCT SEHIR DCT OKLAM DCT OSVEL DCT KFK DCT EDASA DCT SOMGU DCT OBIXI DCT BGS DCT ARGES DCT ORBUF DCT BMR/K0802F360 DCT UO/N0433F360 DCT UPHUN DCT FAFEN DCT RORME ODLAQ |
| Aircraft | A332/H-SDE3GHIJ2J3J5M1RVWXY/LB2D1 |
Departure
| Time | 2026-05-04 05:54 |
|---|---|
| Airport | Beirut Rafic Hariri International Airport (OLBA) |
Arrival
| Time | N/A |
|---|---|
| Airport | Copenhagen Kastrup Airport (EKCH) |
| Time | Latitude | Longitude | Altitude | Speed | Heading |
|---|---|---|---|---|---|
| 2026-05-04 05:45 | 33.83261 | 35.49059 | 52 ft | 0 kts | 86° |
| 2026-05-04 05:48 | 33.83258 | 35.48999 | 52 ft | 0 kts | 176° |
| 2026-05-04 05:48 | 33.82740 | 35.50189 | 73 ft | 0 kts | 123° |
| 2026-05-04 05:52 | 33.82739 | 35.50190 | 73 ft | 1 kts | 123° |
| 2026-05-04 05:52 | 33.82735 | 35.50198 | 68 ft | 2 kts | 123° |
| 2026-05-04 05:52 | 33.82721 | 35.50222 | 69 ft | 5 kts | 125° |
| 2026-05-04 05:53 | 33.82687 | 35.50258 | 73 ft | 8 kts | 152° |
| 2026-05-04 05:54 | 33.78096 | 35.45968 | 2845 ft | 229 kts | 230° |
| 2026-05-04 05:55 | 33.76981 | 35.44525 | 3552 ft | 241 kts | 228° |
| 2026-05-04 05:55 | 33.75827 | 35.43068 | 4508 ft | 239 kts | 227° |
| 2026-05-04 05:55 | 33.74658 | 35.41613 | 5369 ft | 244 kts | 227° |
| 2026-05-04 05:55 | 33.73451 | 35.40122 | 6166 ft | 252 kts | 226° |
| 2026-05-04 05:56 | 33.72238 | 35.38635 | 7173 ft | 249 kts | 227° |
| 2026-05-04 05:56 | 33.71026 | 35.37151 | 8180 ft | 250 kts | 226° |
| 2026-05-04 05:56 | 33.69803 | 35.35658 | 9167 ft | 250 kts | 226° |
| 2026-05-04 05:56 | 33.68582 | 35.34168 | 10137 ft | 250 kts | 227° |
| 2026-05-04 05:57 | 33.67354 | 35.32671 | 11036 ft | 251 kts | 227° |
| 2026-05-04 05:57 | 33.66129 | 35.31178 | 11923 ft | 252 kts | 227° |
| 2026-05-04 05:57 | 33.64897 | 35.29677 | 12794 ft | 253 kts | 227° |
| 2026-05-04 05:57 | 33.63657 | 35.28167 | 13678 ft | 254 kts | 227° |
| 2026-05-04 05:58 | 33.62599 | 35.26513 | 14387 ft | 258 kts | 245° |
| 2026-05-04 05:58 | 33.62345 | 35.24307 | 14702 ft | 285 kts | 273° |
| 2026-05-04 05:58 | 33.63161 | 35.21986 | 14930 ft | 324 kts | 300° |
| 2026-05-04 05:58 | 33.64976 | 35.20148 | 15265 ft | 360 kts | 326° |
| 2026-05-04 05:59 | 33.67371 | 35.19143 | 15879 ft | 376 kts | 338° |
| 2026-05-04 05:59 | 33.69921 | 35.18353 | 16630 ft | 379 kts | 339° |
| 2026-05-04 05:59 | 33.72505 | 35.17613 | 17359 ft | 384 kts | 340° |
| 2026-05-04 05:59 | 33.75149 | 35.16994 | 18134 ft | 390 kts | 343° |
| 2026-05-04 06:00 | 33.77869 | 35.16585 | 18776 ft | 398 kts | 348° |
| 2026-05-04 06:00 | 33.80656 | 35.16382 | 19351 ft | 402 kts | 347° |
| 2026-05-04 06:00 | 33.83331 | 35.15640 | 19930 ft | 389 kts | 329° |
| 2026-05-04 06:00 | 33.85725 | 35.14242 | 20514 ft | 387 kts | 323° |
| 2026-05-04 06:01 | 33.88092 | 35.12666 | 21093 ft | 389 kts | 322° |
| 2026-05-04 06:01 | 33.90457 | 35.11057 | 21681 ft | 392 kts | 322° |
| 2026-05-04 06:03 | 34.08161 | 35.00634 | 25138 ft | 435 kts | 338° |
| 2026-05-04 06:03 | 34.11028 | 34.99567 | 25564 ft | 428 kts | 329° |
| 2026-05-04 06:05 | 34.30394 | 34.89006 | 28350 ft | 449 kts | 326° |
| 2026-05-04 06:05 | 34.36123 | 34.85963 | 29134 ft | 455 kts | 326° |
| 2026-05-04 06:05 | 34.39039 | 34.84416 | 29469 ft | 460 kts | 326° |
| 2026-05-04 06:06 | 34.41985 | 34.82850 | 29801 ft | 464 kts | 326° |
| 2026-05-04 06:06 | 34.44953 | 34.81273 | 30158 ft | 467 kts | 326° |
| 2026-05-04 06:06 | 34.47934 | 34.79687 | 30489 ft | 470 kts | 326° |
| 2026-05-04 06:06 | 34.50927 | 34.78093 | 30792 ft | 472 kts | 326° |
| 2026-05-04 06:07 | 34.53960 | 34.76474 | 31105 ft | 475 kts | 326° |
| 2026-05-04 06:07 | 34.56995 | 34.74853 | 31426 ft | 478 kts | 326° |
| 2026-05-04 06:07 | 34.60061 | 34.73213 | 31766 ft | 481 kts | 326° |
| 2026-05-04 06:07 | 34.63090 | 34.71592 | 32119 ft | 483 kts | 326° |
| 2026-05-04 06:08 | 34.66175 | 34.69940 | 32481 ft | 485 kts | 326° |
| 2026-05-04 06:08 | 34.69261 | 34.68290 | 32908 ft | 484 kts | 326° |
| 2026-05-04 06:08 | 34.72350 | 34.66636 | 33326 ft | 484 kts | 326° |
| 2026-05-04 06:08 | 34.75429 | 34.64986 | 33719 ft | 484 kts | 326° |
| 2026-05-04 06:09 | 34.78511 | 34.63331 | 34072 ft | 484 kts | 326° |
| 2026-05-04 06:09 | 34.81594 | 34.61674 | 34411 ft | 484 kts | 325° |
| 2026-05-04 06:11 | 35.03052 | 34.50108 | 35835 ft | 473 kts | 325° |
| 2026-05-04 06:13 | 35.27860 | 34.36602 | 35817 ft | 504 kts | 327° |
| 2026-05-04 06:14 | 35.50254 | 34.24390 | 35798 ft | 503 kts | 326° |
| 2026-05-04 06:15 | 35.56648 | 34.20880 | 35833 ft | 503 kts | 327° |
| 2026-05-04 06:15 | 35.63047 | 34.17361 | 35806 ft | 504 kts | 327° |
| 2026-05-04 06:16 | 35.69430 | 34.13846 | 35802 ft | 506 kts | 327° |
| 2026-05-04 06:16 | 35.75861 | 34.10299 | 35802 ft | 506 kts | 327° |
| 2026-05-04 06:17 | 35.82293 | 34.06748 | 35793 ft | 506 kts | 327° |
| 2026-05-04 06:17 | 35.88716 | 34.03194 | 35787 ft | 506 kts | 327° |
| 2026-05-04 06:18 | 35.94849 | 33.99118 | 35792 ft | 498 kts | 321° |
| 2026-05-04 06:20 | 36.18450 | 33.81280 | 35781 ft | 498 kts | 320° |
| 2026-05-04 06:21 | 36.33240 | 33.70021 | 35762 ft | 499 kts | 320° |
| 2026-05-04 06:22 | 36.39151 | 33.65505 | 35757 ft | 499 kts | 321° |
| 2026-05-04 06:25 | 36.80616 | 33.33602 | 35712 ft | 502 kts | 321° |
| 2026-05-04 06:26 | 36.86351 | 33.28690 | 35720 ft | 491 kts | 310° |
| 2026-05-04 06:26 | 36.91143 | 33.22706 | 35693 ft | 485 kts | 306° |
| 2026-05-04 06:27 | 37.02492 | 33.07174 | 35707 ft | 486 kts | 305° |
| 2026-05-04 06:28 | 37.06321 | 33.01916 | 35693 ft | 489 kts | 305° |
| 2026-05-04 06:28 | 37.10888 | 32.95657 | 35687 ft | 490 kts | 305° |
| 2026-05-04 06:29 | 37.15494 | 32.89342 | 35687 ft | 490 kts | 305° |
| 2026-05-04 06:29 | 37.20097 | 32.83014 | 35687 ft | 490 kts | 306° |
| 2026-05-04 06:30 | 37.24692 | 32.76685 | 35687 ft | 491 kts | 306° |
| 2026-05-04 06:30 | 37.29286 | 32.70344 | 35691 ft | 491 kts | 306° |
| 2026-05-04 06:31 | 37.33847 | 32.64036 | 35685 ft | 491 kts | 306° |
| 2026-05-04 06:31 | 37.38440 | 32.57669 | 35692 ft | 492 kts | 306° |
| 2026-05-04 06:33 | 37.56927 | 32.31919 | 35708 ft | 495 kts | 306° |
| 2026-05-04 06:34 | 37.61511 | 32.25502 | 35713 ft | 495 kts | 306° |
| 2026-05-04 06:34 | 37.66125 | 32.19035 | 35711 ft | 495 kts | 306° |
| 2026-05-04 06:36 | 37.84559 | 31.93115 | 35707 ft | 497 kts | 307° |
| 2026-05-04 06:37 | 37.89169 | 31.86597 | 35704 ft | 497 kts | 307° |
| 2026-05-04 06:37 | 37.93787 | 31.80058 | 35699 ft | 497 kts | 307° |
| 2026-05-04 06:38 | 37.98394 | 31.73520 | 35702 ft | 497 kts | 307° |
| 2026-05-04 06:40 | 38.16785 | 31.47265 | 35720 ft | 499 kts | 307° |
| 2026-05-04 06:40 | 38.21393 | 31.40646 | 35719 ft | 499 kts | 307° |
| 2026-05-04 06:41 | 38.25996 | 31.34025 | 35728 ft | 500 kts | 307° |
| 2026-05-04 06:41 | 38.30578 | 31.27418 | 35727 ft | 499 kts | 307° |
| 2026-05-04 06:42 | 38.35172 | 31.20777 | 35727 ft | 499 kts | 308° |
| 2026-05-04 06:44 | 38.53475 | 30.94197 | 35751 ft | 499 kts | 308° |
| 2026-05-04 06:44 | 38.58042 | 30.87537 | 35744 ft | 498 kts | 308° |
| 2026-05-04 06:45 | 38.62573 | 30.80915 | 35743 ft | 497 kts | 308° |
| 2026-05-04 06:45 | 38.67126 | 30.74246 | 35746 ft | 497 kts | 308° |
| 2026-05-04 06:46 | 38.71681 | 30.67561 | 35749 ft | 498 kts | 308° |
| 2026-05-04 06:46 | 38.76233 | 30.60865 | 35765 ft | 497 kts | 308° |
| 2026-05-04 06:48 | 38.96796 | 30.44143 | 35774 ft | 509 kts | 332° |
| 2026-05-04 06:48 | 38.99977 | 30.42143 | 35775 ft | 508 kts | 332° |
| 2026-05-04 06:50 | 39.25188 | 30.25957 | 35795 ft | 505 kts | 331° |
| 2026-05-04 06:51 | 39.31486 | 30.21880 | 35802 ft | 506 kts | 332° |
| 2026-05-04 06:51 | 39.37749 | 30.17819 | 35802 ft | 506 kts | 332° |
| 2026-05-04 06:52 | 39.43934 | 30.13445 | 35806 ft | 504 kts | 322° |
| 2026-05-04 06:52 | 39.48878 | 30.07176 | 35813 ft | 497 kts | 306° |
| 2026-05-04 06:53 | 39.53040 | 30.00023 | 35814 ft | 498 kts | 306° |
| 2026-05-04 06:53 | 39.58044 | 29.93798 | 35819 ft | 508 kts | 323° |
| 2026-05-04 06:54 | 39.63999 | 29.88861 | 35827 ft | 507 kts | 327° |
| 2026-05-04 06:54 | 39.70089 | 29.84257 | 35828 ft | 507 kts | 328° |
| 2026-05-04 06:55 | 39.76223 | 29.79665 | 35840 ft | 506 kts | 328° |
| 2026-05-04 06:55 | 39.82279 | 29.75080 | 35849 ft | 503 kts | 328° |
| 2026-05-04 06:57 | 40.06640 | 29.56391 | 35887 ft | 513 kts | 328° |
| 2026-05-04 06:58 | 40.12737 | 29.51691 | 35909 ft | 504 kts | 328° |
| 2026-05-04 06:58 | 40.18720 | 29.47067 | 35911 ft | 501 kts | 328° |
| 2026-05-04 06:59 | 40.24718 | 29.42422 | 35913 ft | 501 kts | 328° |
| 2026-05-04 06:59 | 40.30719 | 29.37765 | 35909 ft | 502 kts | 327° |
| 2026-05-04 07:01 | 40.54869 | 29.18929 | 35951 ft | 504 kts | 328° |
| 2026-05-04 07:02 | 40.60868 | 29.14225 | 35957 ft | 504 kts | 327° |
| 2026-05-04 07:02 | 40.66901 | 29.09481 | 35961 ft | 505 kts | 328° |
| 2026-05-04 07:03 | 40.72919 | 29.04741 | 35969 ft | 503 kts | 328° |
| 2026-05-04 07:03 | 40.78922 | 29.00007 | 35973 ft | 502 kts | 328° |
| 2026-05-04 07:04 | 40.84911 | 28.95288 | 35988 ft | 502 kts | 328° |
| 2026-05-04 07:04 | 40.90866 | 28.90586 | 35985 ft | 503 kts | 328° |
| 2026-05-04 07:05 | 40.96893 | 28.85821 | 35990 ft | 503 kts | 329° |
| 2026-05-04 07:05 | 41.02896 | 28.81064 | 35997 ft | 501 kts | 329° |
| 2026-05-04 07:06 | 41.11830 | 28.73964 | 35999 ft | 500 kts | 328° |
| 2026-05-04 07:07 | 41.17764 | 28.69233 | 35999 ft | 501 kts | 328° |
| 2026-05-04 07:09 | 41.41594 | 28.50139 | 36014 ft | 501 kts | 329° |
| 2026-05-04 07:09 | 41.47564 | 28.45330 | 36026 ft | 503 kts | 330° |
| 2026-05-04 07:10 | 41.53570 | 28.40481 | 36037 ft | 504 kts | 329° |
| 2026-05-04 07:12 | 41.77417 | 28.21121 | 36058 ft | 502 kts | 330° |
| 2026-05-04 07:12 | 41.83387 | 28.16248 | 36069 ft | 504 kts | 329° |
| 2026-05-04 07:13 | 41.89372 | 28.11352 | 36081 ft | 502 kts | 329° |
| 2026-05-04 07:13 | 41.95309 | 28.06483 | 36083 ft | 498 kts | 329° |
| 2026-05-04 07:14 | 42.10174 | 27.94249 | 36098 ft | 504 kts | 329° |
| 2026-05-04 07:15 | 42.16131 | 27.89327 | 36106 ft | 501 kts | 329° |
| 2026-05-04 07:15 | 42.22059 | 27.84418 | 36106 ft | 499 kts | 329° |
| 2026-05-04 07:16 | 42.27968 | 27.79511 | 36119 ft | 500 kts | 329° |
| 2026-05-04 07:16 | 42.33902 | 27.74575 | 36123 ft | 502 kts | 329° |
| 2026-05-04 07:17 | 42.38864 | 27.70440 | 36124 ft | 504 kts | 329° |
| 2026-05-04 07:17 | 42.44828 | 27.65459 | 36130 ft | 502 kts | 329° |
| 2026-05-04 07:18 | 42.50767 | 27.60486 | 36126 ft | 500 kts | 329° |
| 2026-05-04 07:18 | 42.56677 | 27.55544 | 36128 ft | 498 kts | 331° |
| 2026-05-04 07:19 | 42.63033 | 27.51817 | 36131 ft | 498 kts | 341° |
| 2026-05-04 07:19 | 42.69577 | 27.48680 | 36134 ft | 498 kts | 342° |
| 2026-05-04 07:20 | 42.76080 | 27.45690 | 36123 ft | 494 kts | 342° |
| 2026-05-04 07:20 | 42.82603 | 27.42679 | 36137 ft | 496 kts | 342° |
| 2026-05-04 07:22 | 43.08617 | 27.30474 | 36146 ft | 491 kts | 342° |
| 2026-05-04 07:23 | 43.15081 | 27.27423 | 36148 ft | 492 kts | 342° |
| 2026-05-04 07:23 | 43.21551 | 27.24362 | 36147 ft | 492 kts | 342° |
| 2026-05-04 07:24 | 43.28018 | 27.21294 | 36152 ft | 490 kts | 342° |
| 2026-05-04 07:24 | 43.34453 | 27.18235 | 36151 ft | 488 kts | 343° |
| 2026-05-04 07:26 | 43.60036 | 27.06008 | 36155 ft | 484 kts | 343° |
| 2026-05-04 07:27 | 43.66393 | 27.02952 | 36153 ft | 484 kts | 342° |
| 2026-05-04 07:27 | 43.72749 | 26.99891 | 36167 ft | 484 kts | 342° |
| 2026-05-04 07:28 | 43.79119 | 26.96816 | 36162 ft | 485 kts | 342° |
| 2026-05-04 07:28 | 43.85457 | 26.93748 | 36165 ft | 481 kts | 342° |
| 2026-05-04 07:29 | 43.91775 | 26.90684 | 36161 ft | 480 kts | 342° |
| 2026-05-04 07:29 | 43.98094 | 26.87613 | 36165 ft | 481 kts | 342° |
| 2026-05-04 07:30 | 44.04420 | 26.84532 | 36163 ft | 481 kts | 342° |
| 2026-05-04 07:30 | 44.10464 | 26.80506 | 36168 ft | 483 kts | 331° |
| 2026-05-04 07:31 | 44.16136 | 26.75507 | 36160 ft | 482 kts | 329° |
| 2026-05-04 07:33 | 44.38497 | 26.54738 | 36168 ft | 483 kts | 329° |
| 2026-05-04 07:33 | 44.44105 | 26.49526 | 36163 ft | 483 kts | 329° |
| 2026-05-04 07:34 | 44.49697 | 26.44316 | 36155 ft | 483 kts | 329° |
| 2026-05-04 07:34 | 44.55277 | 26.39103 | 36163 ft | 481 kts | 329° |
| 2026-05-04 07:35 | 44.60839 | 26.33895 | 36164 ft | 480 kts | 329° |
| 2026-05-04 07:35 | 44.66360 | 26.28715 | 36165 ft | 480 kts | 329° |
| 2026-05-04 07:36 | 44.71918 | 26.23486 | 36151 ft | 480 kts | 329° |
| 2026-05-04 07:38 | 44.94031 | 26.02561 | 36148 ft | 478 kts | 330° |
| 2026-05-04 07:38 | 44.99532 | 25.97323 | 36156 ft | 475 kts | 330° |
| 2026-05-04 07:39 | 45.05011 | 25.92096 | 36154 ft | 474 kts | 330° |
| 2026-05-04 07:39 | 45.10482 | 25.86866 | 36153 ft | 474 kts | 330° |
| 2026-05-04 07:40 | 45.15949 | 25.81626 | 36141 ft | 474 kts | 330° |
| 2026-05-04 07:40 | 45.21363 | 25.76424 | 36158 ft | 471 kts | 330° |
| 2026-05-04 07:41 | 45.26782 | 25.71204 | 36154 ft | 470 kts | 330° |
| 2026-05-04 07:41 | 45.32198 | 25.65977 | 36159 ft | 470 kts | 330° |
| 2026-05-04 07:42 | 45.37616 | 25.60736 | 36140 ft | 470 kts | 330° |
| 2026-05-04 07:42 | 45.42978 | 25.55532 | 36156 ft | 467 kts | 331° |
| 2026-05-04 07:43 | 45.48333 | 25.50324 | 36166 ft | 466 kts | 331° |
| 2026-05-04 07:43 | 45.53694 | 25.45102 | 36162 ft | 466 kts | 330° |
| 2026-05-04 07:44 | 45.59075 | 25.39868 | 36155 ft | 468 kts | 331° |
| 2026-05-04 07:44 | 45.64451 | 25.34775 | 36159 ft | 464 kts | 332° |
| 2026-05-04 07:45 | 45.69833 | 25.29713 | 36158 ft | 462 kts | 332° |
| 2026-05-04 07:45 | 45.75198 | 25.24650 | 36165 ft | 462 kts | 332° |
| 2026-05-04 07:46 | 45.80538 | 25.19588 | 36143 ft | 462 kts | 332° |
| 2026-05-04 07:46 | 45.85909 | 25.14478 | 36152 ft | 463 kts | 332° |
| 2026-05-04 07:47 | 45.91262 | 25.09370 | 36149 ft | 461 kts | 332° |
| 2026-05-04 07:49 | 46.12603 | 24.88899 | 36140 ft | 462 kts | 332° |
| 2026-05-04 07:49 | 46.17954 | 24.83737 | 36141 ft | 462 kts | 332° |
| 2026-05-04 07:50 | 46.23290 | 24.78574 | 36134 ft | 462 kts | 332° |
| 2026-05-04 07:50 | 46.28600 | 24.73426 | 36135 ft | 462 kts | 332° |
| 2026-05-04 07:51 | 46.33941 | 24.68236 | 36144 ft | 463 kts | 332° |
| 2026-05-04 07:51 | 46.39289 | 24.63027 | 36136 ft | 463 kts | 331° |
| 2026-05-04 07:52 | 46.44632 | 24.57806 | 36154 ft | 463 kts | 331° |
| 2026-05-04 07:52 | 46.49969 | 24.52582 | 36158 ft | 462 kts | 331° |
| 2026-05-04 07:54 | 46.71271 | 24.31606 | 36131 ft | 463 kts | 331° |
| 2026-05-04 07:55 | 46.76600 | 24.26323 | 36122 ft | 463 kts | 330° |
| 2026-05-04 07:55 | 46.81881 | 24.21077 | 36128 ft | 462 kts | 330° |
| 2026-05-04 07:56 | 46.87214 | 24.15768 | 36128 ft | 462 kts | 330° |
| 2026-05-04 07:56 | 46.92536 | 24.10457 | 36131 ft | 462 kts | 330° |
| 2026-05-04 07:57 | 46.97849 | 24.05142 | 36128 ft | 462 kts | 330° |
| 2026-05-04 07:57 | 47.03163 | 23.99811 | 36127 ft | 463 kts | 330° |
| 2026-05-04 07:58 | 47.08441 | 23.94503 | 36123 ft | 463 kts | 330° |
| 2026-05-04 07:58 | 47.13752 | 23.89149 | 36125 ft | 463 kts | 330° |
| 2026-05-04 07:59 | 47.19059 | 23.83788 | 36122 ft | 463 kts | 330° |
| 2026-05-04 07:59 | 47.24339 | 23.78441 | 36124 ft | 462 kts | 329° |
| 2026-05-04 08:00 | 47.29639 | 23.73059 | 36124 ft | 462 kts | 329° |
| 2026-05-04 08:02 | 47.50794 | 23.51445 | 36128 ft | 462 kts | 329° |
| 2026-05-04 08:02 | 47.56067 | 23.46024 | 36135 ft | 462 kts | 329° |
| 2026-05-04 08:03 | 47.61312 | 23.40617 | 36133 ft | 461 kts | 329° |
| 2026-05-04 08:03 | 47.66582 | 23.35169 | 36131 ft | 461 kts | 329° |
| 2026-05-04 08:04 | 47.70920 | 23.30511 | 36114 ft | 462 kts | 327° |
| 2026-05-04 08:04 | 47.76916 | 23.23851 | 36141 ft | 461 kts | 327° |
| 2026-05-04 08:05 | 47.81217 | 23.19054 | 36128 ft | 461 kts | 327° |
| 2026-05-04 08:05 | 47.86323 | 23.13370 | 36126 ft | 461 kts | 327° |
| 2026-05-04 08:06 | 47.91469 | 23.07641 | 36127 ft | 462 kts | 327° |
| 2026-05-04 08:06 | 47.96610 | 23.01906 | 36123 ft | 461 kts | 326° |
| 2026-05-04 08:08 | 48.17046 | 22.78961 | 36124 ft | 460 kts | 326° |
| 2026-05-04 08:11 | 48.39924 | 22.52991 | 36127 ft | 458 kts | 326° |
| 2026-05-04 08:11 | 48.47544 | 22.44275 | 36129 ft | 459 kts | 325° |
| 2026-05-04 08:12 | 48.52624 | 22.38445 | 36129 ft | 459 kts | 325° |
| 2026-05-04 08:12 | 48.57709 | 22.32595 | 36129 ft | 459 kts | 325° |
| 2026-05-04 08:13 | 48.62784 | 22.26744 | 36129 ft | 458 kts | 325° |
| 2026-05-04 08:13 | 48.67936 | 22.21157 | 36128 ft | 457 kts | 327° |
| 2026-05-04 08:14 | 48.73179 | 22.15713 | 36130 ft | 456 kts | 327° |
| 2026-05-04 08:16 | 48.94056 | 21.93746 | 36134 ft | 457 kts | 327° |
| 2026-05-04 08:16 | 48.99266 | 21.88207 | 36130 ft | 457 kts | 327° |
| 2026-05-04 08:17 | 49.04476 | 21.82655 | 36129 ft | 457 kts | 327° |
| 2026-05-04 08:17 | 49.09686 | 21.77088 | 36131 ft | 457 kts | 327° |
| 2026-05-04 08:19 | 49.30461 | 21.54748 | 36121 ft | 457 kts | 326° |
| 2026-05-04 08:20 | 49.35622 | 21.49161 | 36114 ft | 457 kts | 326° |
| 2026-05-04 08:20 | 49.40812 | 21.43529 | 36106 ft | 457 kts | 326° |
| 2026-05-04 08:21 | 49.45997 | 21.37887 | 36106 ft | 456 kts | 326° |
| 2026-05-04 08:21 | 49.51168 | 21.32245 | 36108 ft | 456 kts | 326° |
| 2026-05-04 08:22 | 49.56338 | 21.26589 | 36098 ft | 456 kts | 326° |
| 2026-05-04 08:24 | 49.76977 | 21.03861 | 36086 ft | 455 kts | 326° |
| 2026-05-04 08:24 | 49.82134 | 20.98144 | 36077 ft | 456 kts | 326° |
| 2026-05-04 08:25 | 49.87281 | 20.92421 | 36058 ft | 456 kts | 326° |
| 2026-05-04 08:25 | 49.92427 | 20.86686 | 36054 ft | 455 kts | 326° |
| 2026-05-04 08:27 | 50.12971 | 20.63634 | 36062 ft | 455 kts | 326° |
| 2026-05-04 08:28 | 50.18110 | 20.57830 | 36052 ft | 455 kts | 326° |
| 2026-05-04 08:28 | 50.23204 | 20.52059 | 36061 ft | 455 kts | 325° |
| 2026-05-04 08:29 | 50.28346 | 20.46251 | 36059 ft | 455 kts | 326° |
| 2026-05-04 08:31 | 50.49000 | 20.23402 | 36054 ft | 455 kts | 326° |
| 2026-05-04 08:33 | 50.69634 | 20.00294 | 36047 ft | 455 kts | 325° |
| 2026-05-04 08:35 | 50.90167 | 19.77048 | 36038 ft | 454 kts | 324° |
| 2026-05-04 08:35 | 50.95297 | 19.71199 | 36033 ft | 454 kts | 324° |
| 2026-05-04 08:37 | 51.13186 | 19.50676 | 36023 ft | 453 kts | 324° |
| 2026-05-04 08:38 | 51.18309 | 19.44762 | 36022 ft | 453 kts | 324° |
| 2026-05-04 08:38 | 51.23379 | 19.38892 | 36020 ft | 453 kts | 324° |
| 2026-05-04 08:40 | 51.43736 | 19.15160 | 36016 ft | 452 kts | 324° |
| 2026-05-04 08:41 | 51.48815 | 19.09198 | 36005 ft | 452 kts | 323° |
| 2026-05-04 08:41 | 51.53888 | 19.03226 | 36007 ft | 452 kts | 323° |
| 2026-05-04 08:42 | 51.58921 | 18.97283 | 36002 ft | 452 kts | 323° |
| 2026-05-04 08:42 | 51.63993 | 18.91277 | 36002 ft | 452 kts | 323° |
| 2026-05-04 08:43 | 51.69053 | 18.85270 | 35992 ft | 452 kts | 323° |
| 2026-05-04 08:43 | 51.74113 | 18.79245 | 35997 ft | 452 kts | 323° |
| 2026-05-04 08:44 | 51.79172 | 18.73204 | 35983 ft | 452 kts | 323° |
| 2026-05-04 08:46 | 51.99330 | 18.48960 | 35966 ft | 451 kts | 323° |
| 2026-05-04 08:46 | 52.04370 | 18.42855 | 35965 ft | 451 kts | 322° |
| 2026-05-04 08:47 | 52.09369 | 18.36741 | 35966 ft | 451 kts | 321° |
| 2026-05-04 08:47 | 52.14221 | 18.30250 | 35961 ft | 451 kts | 319° |
| 2026-05-04 08:48 | 52.18995 | 18.23602 | 35961 ft | 451 kts | 319° |
| 2026-05-04 08:48 | 52.23770 | 18.16954 | 35955 ft | 451 kts | 319° |
| 2026-05-04 08:49 | 52.28564 | 18.10312 | 35955 ft | 451 kts | 319° |
| 2026-05-04 08:50 | 52.45298 | 17.87047 | 35948 ft | 452 kts | 319° |
| 2026-05-04 08:51 | 52.49274 | 17.81481 | 35941 ft | 452 kts | 319° |
| 2026-05-04 08:51 | 52.54057 | 17.74770 | 35942 ft | 452 kts | 319° |
| 2026-05-04 08:52 | 52.58840 | 17.68038 | 35949 ft | 452 kts | 318° |
| 2026-05-04 08:52 | 52.63618 | 17.61292 | 35939 ft | 452 kts | 318° |
| 2026-05-04 08:54 | 52.82679 | 17.34181 | 35922 ft | 453 kts | 317° |
| 2026-05-04 08:55 | 52.87447 | 17.27348 | 35924 ft | 453 kts | 317° |
| 2026-05-04 08:55 | 52.92206 | 17.20507 | 35911 ft | 453 kts | 317° |
| 2026-05-04 09:01 | 53.41921 | 16.47783 | 35900 ft | 454 kts | 316° |
| 2026-05-04 09:01 | 53.46581 | 16.40853 | 35905 ft | 434 kts | 316° |
| 2026-05-04 09:02 | 53.51029 | 16.34216 | 35902 ft | 425 kts | 316° |
| 2026-05-04 09:02 | 53.55450 | 16.27587 | 35895 ft | 426 kts | 316° |
| 2026-05-04 09:03 | 53.59873 | 16.20939 | 35784 ft | 426 kts | 315° |
| 2026-05-04 09:03 | 53.62089 | 16.17601 | 35564 ft | 427 kts | 315° |
| 2026-05-04 09:03 | 53.64302 | 16.14264 | 35302 ft | 428 kts | 315° |
| 2026-05-04 09:03 | 53.66525 | 16.10907 | 35048 ft | 428 kts | 315° |
| 2026-05-04 09:04 | 53.68719 | 16.07591 | 34801 ft | 428 kts | 315° |
| 2026-05-04 09:04 | 53.70939 | 16.04230 | 34556 ft | 428 kts | 315° |
| 2026-05-04 09:04 | 53.73158 | 16.00866 | 34311 ft | 428 kts | 315° |
| 2026-05-04 09:04 | 53.75377 | 15.97497 | 34059 ft | 429 kts | 315° |
| 2026-05-04 09:05 | 53.77596 | 15.94122 | 33816 ft | 429 kts | 315° |
| 2026-05-04 09:05 | 53.79828 | 15.90721 | 33528 ft | 430 kts | 315° |
| 2026-05-04 09:05 | 53.82052 | 15.87328 | 33263 ft | 431 kts | 315° |
| 2026-05-04 09:05 | 53.84281 | 15.83922 | 33002 ft | 432 kts | 314° |
| 2026-05-04 09:06 | 53.86491 | 15.80539 | 32743 ft | 434 kts | 314° |
| 2026-05-04 09:07 | 54.02336 | 15.56445 | 30943 ft | 437 kts | 316° |
| 2026-05-04 09:08 | 54.04665 | 15.53037 | 30686 ft | 436 kts | 316° |
| 2026-05-04 09:08 | 54.06930 | 15.49718 | 30435 ft | 434 kts | 316° |
| 2026-05-04 09:08 | 54.09215 | 15.46361 | 30199 ft | 433 kts | 316° |
| 2026-05-04 09:08 | 54.11493 | 15.43009 | 29969 ft | 432 kts | 316° |
| 2026-05-04 09:09 | 54.13764 | 15.39661 | 29674 ft | 431 kts | 316° |
| 2026-05-04 09:09 | 54.16025 | 15.36322 | 29388 ft | 429 kts | 316° |
| 2026-05-04 09:09 | 54.18273 | 15.32997 | 29116 ft | 427 kts | 316° |
| 2026-05-04 09:09 | 54.20514 | 15.29677 | 28834 ft | 425 kts | 316° |
| 2026-05-04 09:10 | 54.22746 | 15.26367 | 28555 ft | 423 kts | 316° |
| 2026-05-04 09:10 | 54.24973 | 15.23059 | 28285 ft | 422 kts | 315° |
| 2026-05-04 09:10 | 54.27184 | 15.19769 | 28010 ft | 420 kts | 315° |
| 2026-05-04 09:10 | 54.29383 | 15.16491 | 27737 ft | 419 kts | 315° |
| 2026-05-04 09:11 | 54.31573 | 15.13223 | 27502 ft | 417 kts | 315° |
| 2026-05-04 09:11 | 54.33732 | 15.09995 | 27253 ft | 415 kts | 315° |
| 2026-05-04 09:11 | 54.35905 | 15.06743 | 26994 ft | 414 kts | 315° |
| 2026-05-04 09:11 | 54.38077 | 15.03487 | 26732 ft | 413 kts | 315° |
| 2026-05-04 09:12 | 54.40221 | 15.00268 | 26487 ft | 412 kts | 315° |